Time;durP1;ratioP1;P1;durP2;ratioP2;P2;SDS_P1;SDS_P2;PMS_P1;PMS_P2;Temp;Humidity;BMP_temperature;BMP_pressure;BME280_temperature;BME280_humidity;BME280_pressure;Samples;Min_cycle;Max_cycle;Signal;HPM_P1;HPM_P2
2021/01/01 00:02:17;;;;;;;88.23;43.83;;;4.30;91.30;;;;;;6261237;22;20014;-86
2021/01/01 00:04:43;;;;;;;78.23;40.77;;;4.20;91.20;;;;;;6261579;22;20008;-87
2021/01/01 00:07:09;;;;;;;76.60;41.40;;;4.00;91.00;;;;;;6262280;22;20000;-87
2021/01/01 00:09:34;;;;;;;78.17;39.97;;;4.10;91.10;;;;;;6262130;22;20069;-86
2021/01/01 00:12:00;;;;;;;70.97;36.90;;;4.00;91.10;;;;;;6261895;22;20008;-87
2021/01/01 00:14:26;;;;;;;73.33;37.33;;;4.00;91.10;;;;;;6262724;22;20019;-87
2021/01/01 00:16:51;;;;;;;67.87;35.70;;;4.00;91.10;;;;;;6263285;22;20015;-88
2021/01/01 00:19:17;;;;;;;77.23;39.63;;;4.00;91.10;;;;;;6262624;22;20062;-88
2021/01/01 00:21:43;;;;;;;70.43;35.97;;;3.90;90.80;;;;;;6267244;22;20003;-86
2021/01/01 00:24:08;;;;;;;72.73;35.47;;;3.90;91.20;;;;;;6297348;22;20069;-86
2021/01/01 00:26:35;;;;;;;67.50;34.73;;;3.90;91.10;;;;;;6270906;22;20051;-86
2021/01/01 00:29:01;;;;;;;63.53;33.70;;;3.80;91.20;;;;;;6263542;22;19999;-88
2021/01/01 00:31:27;;;;;;;69.77;34.13;;;3.90;91.30;;;;;;6273097;22;20011;-85
2021/01/01 00:33:53;;;;;;;59.50;32.13;;;4.00;91.00;;;;;;6274533;22;19999;-87
2021/01/01 00:36:23;;;;;;;60.13;31.47;;;4.00;91.20;;;;;;6273952;22;20063;-85
2021/01/01 00:38:51;;;;;;;59.93;32.00;;;4.00;91.00;;;;;;6273206;22;20011;-89
2021/01/01 00:41:29;;;;;;;61.50;31.77;;;4.00;91.30;;;;;;6298488;22;20000;-85
2021/01/01 00:43:56;;;;;;;59.10;30.77;;;4.00;91.00;;;;;;6267084;22;20008;-87
2021/01/01 00:46:24;;;;;;;64.50;32.57;;;4.00;91.10;;;;;;6260022;22;20425;-86
2021/01/01 00:48:50;;;;;;;64.30;32.50;;;3.90;91.00;;;;;;6259524;22;20000;-86
2021/01/01 00:51:32;;;;;;;59.70;31.50;;;3.90;90.90;;;;;;6259778;22;20007;-86
2021/01/01 00:54:02;;;;;;;59.10;30.87;;;3.90;91.10;;;;;;6258423;22;20133;-88
2021/01/01 00:56:29;;;;;;;61.67;31.77;;;3.90;91.20;;;;;;6284881;22;20011;-85
2021/01/01 00:58:56;;;;;;;56.53;30.57;;;3.90;91.00;;;;;;6258256;22;20004;-86
2021/01/01 01:01:31;;;;;;;61.23;31.50;;;4.00;91.10;;;;;;6258194;22;20030;-86
2021/01/01 01:03:57;;;;;;;58.10;30.07;;;3.90;91.10;;;;;;6257622;22;20003;-87
2021/01/01 01:06:24;;;;;;;58.90;31.10;;;4.00;90.90;;;;;;6259588;22;20000;-87
2021/01/01 01:08:50;;;;;;;61.67;31.30;;;4.00;91.10;;;;;;6261529;22;20061;-87
2021/01/01 01:11:22;;;;;;;54.17;29.30;;;3.90;90.90;;;;;;6264725;22;20004;-87
2021/01/01 01:13:48;;;;;;;62.67;31.63;;;3.90;90.90;;;;;;6264911;22;20006;-87
2021/01/01 01:16:22;;;;;;;56.37;29.53;;;3.90;91.00;;;;;;6262117;22;20031;-87
2021/01/01 01:18:48;;;;;;;54.10;29.53;;;3.90;91.00;;;;;;6260411;22;20008;-86
2021/01/01 01:21:14;;;;;;;57.10;30.80;;;3.80;91.00;;;;;;6259829;22;20015;-86
2021/01/01 01:23:40;;;;;;;56.33;29.93;;;3.90;91.00;;;;;;6260096;22;20004;-86
2021/01/01 01:26:05;;;;;;;55.20;28.97;;;3.90;91.00;;;;;;6259512;22;20050;-87
2021/01/01 01:28:31;;;;;;;54.93;29.30;;;3.90;90.80;;;;;;6287290;22;20006;-86
2021/01/01 01:30:56;;;;;;;52.87;27.97;;;3.90;91.00;;;;;;6260783;22;19996;-86
2021/01/01 01:33:22;;;;;;;53.50;28.70;;;3.90;91.00;;;;;;6259854;22;20003;-85
2021/01/01 01:35:48;;;;;;;48.83;26.73;;;3.90;90.90;;;;;;6260637;22;20004;-85
2021/01/01 01:38:13;;;;;;;49.70;26.50;;;3.90;90.70;;;;;;6261148;22;20354;-86
2021/01/01 01:40:39;;;;;;;53.53;27.70;;;4.00;90.80;;;;;;6260572;22;20008;-88
2021/01/01 01:43:04;;;;;;;47.73;26.53;;;4.00;90.80;;;;;;6260555;22;20034;-86
2021/01/01 01:45:30;;;;;;;50.27;26.37;;;4.00;90.90;;;;;;6260077;22;20011;-86
2021/01/01 01:47:59;;;;;;;51.07;26.23;;;4.00;90.60;;;;;;6260516;22;19999;-86
2021/01/01 01:50:25;;;;;;;48.08;25.90;;;3.90;90.50;;;;;;6285492;22;20046;-85
2021/01/01 01:52:51;;;;;;;52.47;26.70;;;3.90;90.80;;;;;;6259442;22;20000;-87
2021/01/01 01:55:17;;;;;;;50.90;25.87;;;3.90;90.80;;;;;;6259782;22;20018;-86
2021/01/01 01:57:43;;;;;;;48.20;25.40;;;3.90;90.80;;;;;;6259796;22;20435;-86
2021/01/01 02:02:53;;;;;;;45.97;25.53;;;4.00;90.60;;;;;;6296583;22;20008;-86
2021/01/01 02:05:19;;;;;;;48.40;25.67;;;4.00;90.70;;;;;;6259468;22;20000;-87
2021/01/01 02:07:45;;;;;;;47.47;25.33;;;4.00;90.50;;;;;;6286827;22;20039;-86
2021/01/01 02:10:11;;;;;;;46.67;24.40;;;4.00;90.60;;;;;;6257789;22;19999;-85
2021/01/01 02:12:37;;;;;;;49.10;26.27;;;4.00;90.80;;;;;;6285587;22;20003;-85
2021/01/01 02:15:03;;;;;;;49.17;25.80;;;4.00;91.00;;;;;;6285840;22;20025;-85
2021/01/01 02:17:29;;;;;;;47.20;24.93;;;4.00;90.70;;;;;;6259186;22;20072;-85
2021/01/01 02:20:10;;;;;;;47.47;25.27;;;4.00;90.60;;;;;;6259017;22;20438;-87
2021/01/01 02:22:36;;;;;;;48.37;25.70;;;4.00;90.50;;;;;;6260036;22;20003;-85
2021/01/01 02:25:04;;;;;;;44.00;23.37;;;4.00;90.80;;;;;;6259623;22;20004;-87
2021/01/01 02:27:29;;;;;;;46.43;25.23;;;4.00;90.50;;;;;;6259995;22;20004;-85
2021/01/01 02:29:55;;;;;;;50.47;25.97;;;4.00;90.40;;;;;;6285455;22;20139;-85
2021/01/01 02:32:21;;;;;;;47.83;25.10;;;4.00;90.60;;;;;;6259181;22;20082;-86
2021/01/01 02:34:46;;;;;;;45.33;24.87;;;4.00;90.50;;;;;;6259565;22;20057;-87
2021/01/01 02:37:12;;;;;;;45.27;24.50;;;4.00;90.70;;;;;;6259049;22;20003;-85
2021/01/01 02:39:38;;;;;;;47.37;24.47;;;4.00;90.60;;;;;;6259710;22;20263;-86
2021/01/01 02:42:04;;;;;;;46.37;24.97;;;4.00;90.50;;;;;;6259915;22;20035;-85
2021/01/01 02:44:30;;;;;;;44.97;24.17;;;4.10;90.60;;;;;;6259686;22;20060;-85
2021/01/01 02:47:03;;;;;;;44.63;23.43;;;4.10;90.40;;;;;;6260487;22;20000;-86
2021/01/01 02:49:30;;;;;;;41.33;22.93;;;4.10;90.40;;;;;;6259172;22;20415;-85
2021/01/01 02:51:56;;;;;;;47.07;24.50;;;4.10;90.50;;;;;;6259311;22;20090;-85
2021/01/01 02:54:21;;;;;;;42.97;23.67;;;4.10;90.70;;;;;;6287648;22;19996;-85
2021/01/01 02:56:47;;;;;;;45.13;24.03;;;4.00;90.80;;;;;;6259723;22;20015;-86
2021/01/01 02:59:13;;;;;;;43.03;23.70;;;4.00;91.10;;;;;;6286783;22;20003;-85
2021/01/01 03:01:39;;;;;;;43.67;23.60;;;4.00;91.10;;;;;;6287148;22;19996;-85
2021/01/01 03:04:04;;;;;;;45.90;24.67;;;4.00;91.10;;;;;;6260323;22;20046;-85
2021/01/01 03:06:30;;;;;;;43.63;24.00;;;4.00;90.90;;;;;;6259459;22;20026;-85
2021/01/01 03:08:56;;;;;;;44.10;23.43;;;3.90;91.00;;;;;;6284955;22;20026;-86
2021/01/01 03:11:21;;;;;;;49.13;23.00;;;3.90;91.10;;;;;;6258200;22;20034;-85
2021/01/01 03:13:47;;;;;;;46.70;23.87;;;3.90;91.00;;;;;;6258462;22;20000;-85
2021/01/01 03:16:12;;;;;;;41.23;22.30;;;4.00;91.00;;;;;;6258877;22;20370;-85
2021/01/01 03:18:38;;;;;;;41.40;22.40;;;3.90;90.90;;;;;;6258609;22;20012;-85
2021/01/01 03:21:04;;;;;;;43.50;23.43;;;4.00;90.90;;;;;;6257543;22;20011;-86
2021/01/01 03:23:30;;;;;;;43.83;23.47;;;4.00;90.90;;;;;;6285317;22;20007;-85
2021/01/01 03:25:55;;;;;;;42.20;22.80;;;4.00;91.00;;;;;;6258017;22;20008;-86
2021/01/01 03:28:21;;;;;;;42.93;22.17;;;4.00;90.80;;;;;;6257896;22;20023;-85
2021/01/01 03:30:47;;;;;;;42.17;22.80;;;4.00;90.80;;;;;;6257726;22;20402;-85
2021/01/01 03:33:13;;;;;;;42.73;23.27;;;4.00;90.80;;;;;;6258301;22;20007;-86
2021/01/01 03:35:39;;;;;;;46.53;23.43;;;4.00;90.50;;;;;;6258483;22;20004;-86
2021/01/01 03:38:05;;;;;;;49.73;24.83;;;4.00;90.80;;;;;;6285168;22;20015;-85
2021/01/01 03:40:31;;;;;;;47.27;25.67;;;3.90;91.20;;;;;;6257757;22;20018;-85
2021/01/01 03:42:57;;;;;;;49.97;24.47;;;3.90;91.40;;;;;;6257502;22;20003;-85
2021/01/01 03:45:23;;;;;;;49.37;25.10;;;3.90;91.30;;;;;;6256549;22;20017;-86
2021/01/01 03:47:48;;;;;;;47.67;25.40;;;4.00;91.30;;;;;;6283009;22;20071;-86
2021/01/01 03:50:14;;;;;;;49.30;25.53;;;3.90;91.40;;;;;;6283962;22;20040;-86
2021/01/01 03:52:40;;;;;;;46.13;25.50;;;3.90;91.30;;;;;;6257868;22;20016;-85
2021/01/01 03:55:06;;;;;;;48.37;26.00;;;3.90;91.50;;;;;;6257675;22;20334;-85
2021/01/01 03:57:32;;;;;;;51.10;26.53;;;4.00;91.60;;;;;;6257724;22;20026;-86
2021/01/01 03:59:57;;;;;;;55.63;27.33;;;4.10;91.50;;;;;;6256708;22;20008;-86
2021/01/01 04:02:23;;;;;;;51.97;27.23;;;3.90;91.40;;;;;;6258190;22;20004;-85
2021/01/01 04:04:48;;;;;;;49.67;26.53;;;4.00;91.70;;;;;;6258149;22;20007;-87
2021/01/01 04:07:14;;;;;;;52.73;28.43;;;3.90;91.50;;;;;;6284329;22;20031;-85
2021/01/01 04:09:40;;;;;;;57.27;28.10;;;4.00;91.30;;;;;;6257623;22;20082;-85
2021/01/01 04:12:06;;;;;;;52.03;27.13;;;3.90;91.50;;;;;;6257378;22;20006;-86
2021/01/01 04:14:32;;;;;;;49.27;26.90;;;3.90;91.30;;;;;;6257622;22;19999;-86
2021/01/01 04:16:57;;;;;;;44.73;24.47;;;3.90;91.10;;;;;;6258311;22;20454;-85
2021/01/01 04:19:23;;;;;;;44.23;24.77;;;4.00;91.00;;;;;;6256919;22;20343;-85
2021/01/01 04:21:49;;;;;;;47.70;24.87;;;4.00;91.00;;;;;;6257708;22;20003;-88
2021/01/01 04:24:16;;;;;;;49.37;25.67;;;3.90;90.90;;;;;;6257168;22;20457;-87
2021/01/01 04:26:42;;;;;;;48.57;25.33;;;3.90;91.10;;;;;;6258379;22;20022;-85
2021/01/01 04:29:08;;;;;;;52.40;27.20;;;3.90;91.30;;;;;;6258004;22;20423;-86
2021/01/01 04:31:34;;;;;;;53.70;26.90;;;3.80;91.50;;;;;;6259396;22;20006;-86
2021/01/01 04:34:00;;;;;;;53.23;27.30;;;3.80;91.60;;;;;;6259716;22;20063;-85
2021/01/01 04:36:26;;;;;;;49.77;26.63;;;3.70;91.80;;;;;;6285415;22;20000;-86
2021/01/01 04:38:51;;;;;;;52.17;25.73;;;3.70;91.90;;;;;;6256742;22;20034;-86
2021/01/01 04:41:19;;;;;;;50.80;27.13;;;3.70;91.80;;;;;;6258377;22;20063;-87
2021/01/01 04:43:47;;;;;;;51.47;27.27;;;3.70;91.70;;;;;;6285008;22;20000;-85
2021/01/01 04:46:13;;;;;;;53.83;26.67;;;3.70;91.90;;;;;;6257487;22;20339;-85
2021/01/01 04:48:39;;;;;;;48.27;25.50;;;3.60;92.00;;;;;;6257168;22;20063;-86
2021/01/01 04:51:07;;;;;;;51.63;26.43;;;3.60;92.00;;;;;;6258793;22;20273;-85
2021/01/01 04:53:35;;;;;;;47.77;26.37;;;3.60;92.10;;;;;;6285939;22;20418;-85
2021/01/01 04:56:02;;;;;;;49.00;26.40;;;3.50;92.20;;;;;;6258793;22;20007;-85
2021/01/01 04:58:28;;;;;;;48.77;25.43;;;3.60;92.20;;;;;;6258597;22;20072;-87
2021/01/01 05:00:54;;;;;;;53.07;26.40;;;3.60;92.20;;;;;;6257313;22;20014;-85
2021/01/01 05:03:20;;;;;;;49.90;25.83;;;3.60;92.10;;;;;;6257689;22;19999;-87
2021/01/01 05:05:49;;;;;;;50.63;26.00;;;3.60;92.60;;;;;;6257582;22;20015;-86
2021/01/01 05:08:16;;;;;;;53.40;26.13;;;3.60;92.20;;;;;;6257468;22;20015;-85
2021/01/01 05:10:42;;;;;;;49.73;25.93;;;3.50;92.30;;;;;;6255072;22;20027;-86
2021/01/01 05:13:13;;;;;;;46.63;25.40;;;3.60;92.10;;;;;;6256716;22;20007;-87
2021/01/01 05:15:40;;;;;;;46.37;25.00;;;3.60;92.00;;;;;;6282888;22;20031;-85
2021/01/01 05:18:23;;;;;;;48.73;25.47;;;3.50;92.00;;;;;;6255856;22;20004;-85
2021/01/01 05:20:50;;;;;;;52.10;26.50;;;3.50;92.00;;;;;;6274054;22;20015;-81
2021/01/01 05:23:26;;;;;;;48.77;25.23;;;3.40;91.90;;;;;;6276822;22;19996;-81
2021/01/01 05:26:25;;;;;;;50.97;26.27;;;3.40;92.40;;;;;;6276293;22;20376;-81
2021/01/01 05:28:56;;;;;;;47.50;23.90;;;3.40;92.20;;;;;;6191040;22;20094;-82
2021/01/01 05:31:27;;;;;;;51.03;26.43;;;3.40;92.40;;;;;;6246087;23;20446;-81
2021/01/01 05:33:57;;;;;;;45.63;25.60;;;3.40;92.40;;;;;;6246425;23;20004;-81
2021/01/01 05:36:41;;;;;;;45.43;24.80;;;3.40;92.30;;;;;;6218479;23;20011;-81
2021/01/01 05:39:13;;;;;;;46.80;25.80;;;3.50;92.20;;;;;;6243714;23;20047;-81
2021/01/01 05:41:41;;;;;;;49.70;27.70;;;3.50;92.20;;;;;;6243909;22;20011;-81
2021/01/01 05:44:07;;;;;;;45.67;24.30;;;3.60;91.90;;;;;;6244002;22;20008;-81
2021/01/01 05:46:33;;;;;;;49.43;25.10;;;3.70;91.70;;;;;;6245802;23;20012;-81
2021/01/01 05:49:00;;;;;;;49.90;25.00;;;3.60;91.70;;;;;;6245395;22;20438;-81
2021/01/01 05:51:26;;;;;;;47.83;24.70;;;3.60;91.50;;;;;;6220538;23;20004;-81
2021/01/01 05:54:08;;;;;;;48.07;24.07;;;3.50;91.70;;;;;;6248033;23;20000;-81
2021/01/01 05:56:34;;;;;;;49.40;25.17;;;3.40;91.70;;;;;;6247533;23;20004;-81
2021/01/01 05:59:01;;;;;;;45.97;24.40;;;3.40;92.00;;;;;;6247321;22;20011;-81
2021/01/01 06:01:29;;;;;;;47.03;24.93;;;3.30;92.00;;;;;;6220693;23;20004;-81
2021/01/01 06:03:55;;;;;;;47.03;24.50;;;3.30;91.90;;;;;;6220664;23;20335;-81
2021/01/01 06:06:22;;;;;;;52.70;26.13;;;3.30;92.10;;;;;;6247613;23;20080;-81
2021/01/01 06:08:50;;;;;;;50.30;25.13;;;3.30;92.30;;;;;;6247109;22;20034;-81
2021/01/01 06:11:20;;;;;;;48.33;25.33;;;3.30;92.30;;;;;;6247372;23;20010;-81
2021/01/01 06:13:50;;;;;;;49.23;25.83;;;3.40;92.10;;;;;;6248033;23;20000;-81
2021/01/01 06:16:24;;;;;;;47.10;26.10;;;3.40;92.00;;;;;;6247947;23;20467;-81
2021/01/01 06:18:56;;;;;;;49.87;25.27;;;3.40;92.10;;;;;;6247107;22;20083;-81
2021/01/01 06:21:33;;;;;;;49.40;26.37;;;3.50;92.10;;;;;;6247722;23;20012;-82
2021/01/01 06:24:01;;;;;;;43.07;23.97;;;3.50;92.10;;;;;;6247772;23;20000;-81
2021/01/01 06:26:27;;;;;;;45.30;24.50;;;3.50;91.80;;;;;;6247321;23;20450;-82
2021/01/01 06:28:53;;;;;;;49.97;25.10;;;3.50;91.70;;;;;;6246817;22;19997;-81
2021/01/01 06:31:20;;;;;;;45.77;24.73;;;3.50;91.70;;;;;;6246938;23;19996;-81
2021/01/01 06:33:45;;;;;;;48.13;24.77;;;3.50;91.60;;;;;;6246798;23;19996;-81
2021/01/01 06:36:39;;;;;;;47.43;24.90;;;3.50;91.70;;;;;;6219947;23;20083;-81
2021/01/01 06:39:05;;;;;;;49.70;24.83;;;3.40;91.70;;;;;;6244586;23;20008;-81
2021/01/01 06:41:46;;;;;;;50.37;24.53;;;3.40;91.90;;;;;;6247012;23;20053;-82
2021/01/01 06:44:36;;;;;;;44.47;24.60;;;3.40;92.30;;;;;;6247100;23;19996;-81
2021/01/01 06:47:09;;;;;;;48.20;25.67;;;3.50;92.00;;;;;;6247034;23;20000;-82
2021/01/01 06:49:39;;;;;;;53.10;28.07;;;3.50;91.90;;;;;;6246164;22;20000;-81
2021/01/01 06:52:16;;;;;;;54.78;29.10;;;3.60;91.80;;;;;;6245417;22;20034;-81
2021/01/01 06:55:08;;;;;;;53.97;29.03;;;3.60;91.60;;;;;;6219924;23;20074;-81
2021/01/01 06:57:33;;;;;;;57.33;29.40;;;3.60;91.60;;;;;;6242615;23;20381;-82
2021/01/01 06:59:59;;;;;;;53.13;28.90;;;3.60;91.60;;;;;;6244516;22;20015;-81
2021/01/01 07:02:29;;;;;;;58.23;29.70;;;3.70;91.60;;;;;;6246291;23;20004;-81
2021/01/01 07:04:55;;;;;;;55.10;30.83;;;3.70;91.50;;;;;;6247248;23;20036;-81
2021/01/01 07:07:44;;;;;;;55.30;29.13;;;3.70;91.40;;;;;;6220049;23;20004;-81
2021/01/01 07:10:32;;;;;;;55.05;28.80;;;3.70;91.20;;;;;;6246596;22;20099;-82
2021/01/01 07:13:17;;;;;;;55.07;29.13;;;3.60;91.50;;;;;;6246919;23;20012;-82
2021/01/01 07:15:43;;;;;;;56.47;29.50;;;3.60;91.40;;;;;;6247219;23;20004;-82
2021/01/01 07:18:09;;;;;;;52.17;28.37;;;3.60;91.50;;;;;;6249139;23;20039;-82
2021/01/01 07:20:39;;;;;;;52.90;27.97;;;3.50;91.50;;;;;;6249230;22;20082;-82
2021/01/01 07:23:05;;;;;;;55.80;28.73;;;3.40;91.70;;;;;;6222937;23;20034;-82
2021/01/01 07:25:38;;;;;;;55.67;29.07;;;3.30;91.80;;;;;;6223592;23;20012;-82
2021/01/01 07:28:06;;;;;;;53.93;28.87;;;3.30;92.00;;;;;;6251217;23;20038;-82
2021/01/01 07:30:33;;;;;;;58.07;29.70;;;3.30;91.90;;;;;;6248225;22;20004;-82
2021/01/01 07:32:59;;;;;;;53.03;28.13;;;3.30;92.00;;;;;;6223476;23;20445;-82
2021/01/01 07:35:26;;;;;;;53.77;28.67;;;3.20;91.80;;;;;;6250613;23;20027;-82
2021/01/01 07:37:53;;;;;;;54.90;27.30;;;3.20;91.90;;;;;;6250088;23;20030;-82
2021/01/01 07:40:19;;;;;;;52.00;27.53;;;3.20;91.90;;;;;;6249824;22;20035;-82
2021/01/01 07:42:50;;;;;;;58.23;28.47;;;3.10;91.90;;;;;;6224838;23;20496;-81
2021/01/01 07:45:16;;;;;;;57.20;28.80;;;3.10;92.00;;;;;;6222183;23;20004;-82
2021/01/01 07:47:43;;;;;;;60.23;28.80;;;3.10;92.00;;;;;;6247513;23;19996;-81
2021/01/01 07:50:13;;;;;;;56.07;29.03;;;3.10;92.10;;;;;;6219198;23;20485;-81
2021/01/01 07:52:39;;;;;;;59.77;29.37;;;3.10;92.10;;;;;;6246458;23;20364;-81
2021/01/01 07:55:05;;;;;;;61.53;31.33;;;3.10;92.10;;;;;;6248706;23;20007;-82
2021/01/01 07:57:30;;;;;;;58.33;30.00;;;3.10;92.30;;;;;;6254704;23;20004;-82
2021/01/01 07:59:58;;;;;;;61.00;31.57;;;3.10;92.30;;;;;;6227260;23;20031;-82
2021/01/01 08:02:25;;;;;;;55.77;29.43;;;3.20;92.20;;;;;;6254231;23;20007;-81
2021/01/01 08:04:52;;;;;;;61.90;31.07;;;3.20;92.10;;;;;;6253620;23;20015;-82
2021/01/01 08:07:22;;;;;;;60.27;32.00;;;3.20;92.00;;;;;;6248760;23;20004;-81
2021/01/01 08:09:48;;;;;;;64.73;33.77;;;3.20;92.00;;;;;;6245231;22;20000;-81
2021/01/01 08:12:13;;;;;;;65.73;34.30;;;3.20;91.90;;;;;;6246012;23;20073;-81
2021/01/01 08:14:47;;;;;;;62.83;31.70;;;3.20;92.10;;;;;;6245967;23;20426;-81
2021/01/01 08:17:29;;;;;;;58.17;30.77;;;3.30;92.30;;;;;;6246477;23;20006;-81
2021/01/01 08:19:58;;;;;;;48.17;26.27;;;3.30;92.10;;;;;;6245954;22;20011;-81
2021/01/01 08:22:35;;;;;;;52.55;27.95;;;3.30;92.10;;;;;;6219307;23;20004;-81
2021/01/01 08:25:02;;;;;;;54.63;28.47;;;3.20;92.00;;;;;;6245600;23;20004;-81
2021/01/01 08:27:28;;;;;;;54.53;28.53;;;3.20;92.00;;;;;;6244079;23;20046;-81
2021/01/01 08:29:55;;;;;;;49.40;27.30;;;3.20;92.10;;;;;;6245231;22;20522;-81
2021/01/01 08:32:22;;;;;;;51.43;26.60;;;3.20;92.10;;;;;;6245763;23;20004;-81
2021/01/01 08:34:50;;;;;;;52.20;27.57;;;3.30;92.20;;;;;;6246316;23;20040;-81
2021/01/01 08:37:17;;;;;;;54.40;27.93;;;3.30;92.30;;;;;;6245268;23;19996;-81
2021/01/01 08:39:43;;;;;;;54.03;27.33;;;3.30;92.30;;;;;;6243126;22;20008;-81
2021/01/01 08:42:12;;;;;;;48.50;26.53;;;3.30;92.20;;;;;;6245386;23;20004;-81
2021/01/01 08:44:39;;;;;;;53.90;28.13;;;3.30;92.20;;;;;;6245952;23;20018;-81
2021/01/01 08:47:06;;;;;;;54.10;28.13;;;3.30;92.30;;;;;;6244098;23;20000;-81
2021/01/01 08:49:34;;;;;;;56.37;28.80;;;3.40;92.20;;;;;;6243339;23;20008;-81
2021/01/01 08:52:12;;;;;;;57.78;30.33;;;3.50;92.10;;;;;;6245517;23;20058;-82
2021/01/01 08:54:38;;;;;;;60.03;30.57;;;3.40;92.10;;;;;;6245515;23;20024;-81
2021/01/01 08:57:04;;;;;;;55.90;28.73;;;3.40;92.10;;;;;;6244949;23;20050;-81
2021/01/01 08:59:30;;;;;;;56.90;30.37;;;3.40;92.20;;;;;;6244251;22;20022;-81
2021/01/01 09:01:57;;;;;;;61.83;31.93;;;3.40;92.20;;;;;;6246575;23;19997;-82
2021/01/01 09:04:27;;;;;;;66.13;33.33;;;3.40;92.20;;;;;;6243973;23;20079;-81
2021/01/01 09:06:58;;;;;;;60.70;31.73;;;3.40;92.30;;;;;;6246422;23;19996;-82
2021/01/01 09:09:29;;;;;;;67.90;34.53;;;3.40;92.50;;;;;;6245561;22;20003;-81
2021/01/01 09:12:17;;;;;;;61.60;33.13;;;3.40;92.40;;;;;;6244867;23;20003;-81
2021/01/01 09:14:45;;;;;;;68.57;33.45;;;3.40;92.40;;;;;;6245464;23;20042;-82
2021/01/01 09:17:10;;;;;;;65.40;32.63;;;3.50;92.40;;;;;;6218699;23;20012;-82
2021/01/01 09:19:36;;;;;;;69.93;34.90;;;3.50;92.50;;;;;;6245026;22;20454;-82
2021/01/01 09:22:12;;;;;;;66.70;34.23;;;3.50;92.50;;;;;;6245800;23;20071;-81
2021/01/01 09:24:39;;;;;;;68.80;35.83;;;3.50;92.60;;;;;;6245842;23;20066;-81
2021/01/01 09:27:05;;;;;;;69.77;35.77;;;3.50;92.50;;;;;;6248280;23;20060;-82
2021/01/01 09:29:30;;;;;;;70.93;37.50;;;3.50;92.60;;;;;;6247632;22;20008;-81
2021/01/01 09:31:56;;;;;;;73.63;38.53;;;3.60;92.50;;;;;;6248222;23;20028;-81
2021/01/01 09:34:22;;;;;;;75.80;39.47;;;3.70;92.40;;;;;;6246413;23;20380;-81
2021/01/01 09:36:48;;;;;;;74.63;40.37;;;3.70;92.20;;;;;;6220909;23;20004;-82
2021/01/01 09:39:13;;;;;;;73.17;39.97;;;3.70;92.40;;;;;;6246842;22;20031;-81
2021/01/01 09:41:46;;;;;;;81.07;41.90;;;3.70;92.30;;;;;;6220495;23;20004;-81
2021/01/01 09:44:11;;;;;;;79.10;42.50;;;3.80;92.50;;;;;;6221122;23;20007;-81
2021/01/01 09:46:44;;;;;;;84.33;43.33;;;3.80;92.20;;;;;;6247830;23;20008;-81
2021/01/01 09:49:12;;;;;;;81.17;42.53;;;3.90;92.30;;;;;;6248166;22;20093;-82
2021/01/01 09:51:41;;;;;;;78.40;42.47;;;3.90;92.20;;;;;;6247871;23;19996;-81
2021/01/01 09:54:06;;;;;;;84.55;45.08;;;3.90;92.00;;;;;;6248233;23;20430;-81
2021/01/01 09:56:39;;;;;;;86.37;45.27;;;3.90;92.10;;;;;;6220872;23;20038;-82
2021/01/01 09:59:05;;;;;;;84.60;45.10;;;3.90;92.00;;;;;;6247442;22;20004;-82
2021/01/01 10:01:33;;;;;;;87.43;46.53;;;4.00;92.10;;;;;;6245968;23;20012;-81
2021/01/01 10:03:59;;;;;;;93.20;45.53;;;4.00;92.00;;;;;;6247479;23;20000;-82
2021/01/01 10:06:26;;;;;;;90.90;46.43;;;4.00;92.00;;;;;;6247457;23;20011;-81
2021/01/01 10:08:51;;;;;;;84.67;44.93;;;4.00;92.10;;;;;;6221006;22;20370;-81
2021/01/01 10:11:17;;;;;;;90.40;46.63;;;4.00;92.00;;;;;;6247204;23;20003;-81
2021/01/01 10:13:43;;;;;;;94.97;47.73;;;3.90;92.20;;;;;;6220777;23;20008;-81
2021/01/01 10:16:11;;;;;;;94.47;46.80;;;3.90;92.20;;;;;;6247454;23;20455;-82
2021/01/01 10:18:39;;;;;;;88.73;47.07;;;4.00;92.10;;;;;;6247424;23;20070;-81
2021/01/01 10:21:04;;;;;;;92.27;47.13;;;4.00;92.00;;;;;;6246545;23;20494;-82
2021/01/01 10:23:30;;;;;;;97.20;47.23;;;4.00;92.00;;;;;;6220741;23;20070;-82
2021/01/01 10:25:56;;;;;;;90.80;46.80;;;4.00;92.00;;;;;;6246956;23;20028;-81
2021/01/01 10:28:22;;;;;;;92.43;48.93;;;4.00;92.00;;;;;;6247356;23;19996;-81
2021/01/01 10:30:47;;;;;;;91.30;47.07;;;4.00;92.00;;;;;;6247055;22;20007;-83
2021/01/01 10:33:13;;;;;;;97.10;49.93;;;4.00;92.30;;;;;;6247336;23;19996;-81
2021/01/01 10:35:40;;;;;;;89.07;47.83;;;4.00;92.20;;;;;;6245935;23;20038;-82
2021/01/01 10:38:06;;;;;;;95.77;49.40;;;3.90;92.40;;;;;;6247862;23;20032;-81
2021/01/01 10:40:31;;;;;;;95.80;48.47;;;4.00;92.10;;;;;;6246298;22;20004;-81
2021/01/01 10:42:58;;;;;;;86.73;47.73;;;3.90;92.10;;;;;;6247433;23;20004;-81
2021/01/01 10:45:23;;;;;;;93.23;48.80;;;4.00;92.20;;;;;;6245898;23;20047;-82
2021/01/01 10:47:49;;;;;;;91.53;48.57;;;4.00;92.20;;;;;;6247492;23;20000;-81
2021/01/01 10:50:15;;;;;;;89.90;46.27;;;4.00;92.10;;;;;;6244546;23;20007;-81
2021/01/01 10:52:41;;;;;;;96.73;49.33;;;4.00;92.10;;;;;;6247165;23;20007;-81
2021/01/01 10:55:07;;;;;;;88.53;48.23;;;4.00;92.20;;;;;;6247642;23;20011;-81
2021/01/01 10:57:32;;;;;;;95.70;48.17;;;4.00;92.50;;;;;;6245511;23;20014;-81
2021/01/01 10:59:58;;;;;;;93.30;47.60;;;4.00;92.40;;;;;;6246331;22;20458;-82
2021/01/01 11:02:24;;;;;;;87.70;44.90;;;4.00;92.20;;;;;;6246913;23;20419;-81
2021/01/01 11:04:49;;;;;;;92.03;46.57;;;4.00;92.10;;;;;;6245167;23;20031;-81
2021/01/01 11:07:15;;;;;;;91.63;46.47;;;4.10;92.10;;;;;;6220008;23;20470;-81
2021/01/01 11:09:41;;;;;;;93.77;46.00;;;4.10;92.20;;;;;;6246284;22;20054;-82
2021/01/01 11:12:07;;;;;;;90.47;45.67;;;4.10;92.20;;;;;;6247376;23;20032;-81
2021/01/01 12:21:42;;;;;;;65.37;33.80;;;4.40;92.10;;;;;;6276207;22;20098;-85
2021/01/01 12:27:04;;;;;;;64.87;34.33;;;4.40;92.10;;;;;;6208113;22;20015;-86
2021/01/01 12:29:46;;;;;;;68.43;34.40;;;4.40;92.00;;;;;;6246278;22;20008;-85
2021/01/01 12:32:54;;;;;;;64.83;33.67;;;4.40;92.00;;;;;;6247060;22;20038;-86
2021/01/01 12:35:25;;;;;;;70.22;35.03;;;4.40;91.90;;;;;;6266569;22;20004;-86
2021/01/01 12:38:02;;;;;;;67.47;33.43;;;4.40;92.10;;;;;;6249601;22;20130;-86
2021/01/01 12:40:28;;;;;;;62.60;32.17;;;4.40;91.90;;;;;;6266876;22;20521;-86
2021/01/01 12:42:55;;;;;;;56.43;29.53;;;4.50;91.90;;;;;;6290551;22;19996;-86
2021/01/01 12:45:22;;;;;;;61.97;31.63;;;4.50;91.60;;;;;;6260284;22;20012;-86
2021/01/01 12:47:48;;;;;;;59.90;30.80;;;4.50;91.70;;;;;;6275957;22;20034;-85
2021/01/01 12:50:15;;;;;;;42.67;23.07;;;4.40;91.70;;;;;;6274747;22;20082;-86
2021/01/01 12:52:52;;;;;;;39.40;18.60;;;4.40;90.90;;;;;;6275853;22;20000;-86
2021/01/01 12:55:18;;;;;;;37.50;19.33;;;4.50;90.20;;;;;;6275526;22;20006;-85
2021/01/01 12:57:43;;;;;;;40.27;19.40;;;4.50;90.10;;;;;;6248933;22;20004;-86
2021/01/01 13:00:09;;;;;;;36.43;18.90;;;4.50;90.30;;;;;;6247785;22;20007;-86
2021/01/01 13:02:35;;;;;;;39.87;19.60;;;4.50;90.20;;;;;;6276883;22;20010;-84
2021/01/01 13:05:01;;;;;;;38.03;18.90;;;4.50;90.10;;;;;;6263816;22;20067;-85
2021/01/01 13:07:27;;;;;;;36.67;19.03;;;4.50;90.00;;;;;;6288453;22;19995;-87
2021/01/01 13:09:52;;;;;;;37.77;18.27;;;4.50;89.80;;;;;;6263560;22;20229;-83
2021/01/01 13:12:18;;;;;;;33.80;18.10;;;4.60;90.00;;;;;;6303339;22;19992;-85
2021/01/01 13:14:44;;;;;;;35.17;18.60;;;4.50;89.10;;;;;;6276089;22;20011;-85
2021/01/01 13:17:09;;;;;;;32.17;17.03;;;4.50;89.10;;;;;;6276662;22;19995;-85
2021/01/01 13:19:35;;;;;;;38.53;19.00;;;4.60;90.10;;;;;;6302241;22;20052;-85
2021/01/01 13:22:01;;;;;;;36.83;19.40;;;4.60;90.10;;;;;;6275592;22;20000;-85
2021/01/01 13:24:26;;;;;;;40.20;20.50;;;4.60;90.10;;;;;;6278115;22;19992;-84
2021/01/01 13:26:52;;;;;;;43.87;21.97;;;4.70;90.20;;;;;;6276109;22;20016;-86
2021/01/01 13:29:17;;;;;;;44.30;19.63;;;4.60;90.30;;;;;;6299121;22;19992;-86
2021/01/01 13:31:44;;;;;;;34.43;18.17;;;4.70;90.10;;;;;;6304457;22;20008;-85
2021/01/01 13:34:10;;;;;;;39.10;18.20;;;4.60;90.10;;;;;;6304176;22;20007;-86
2021/01/01 13:36:38;;;;;;;33.03;17.37;;;4.60;89.30;;;;;;6272331;22;20000;-87
2021/01/01 13:39:05;;;;;;;38.00;18.10;;;4.60;89.40;;;;;;6274147;22;20011;-86
2021/01/01 13:41:31;;;;;;;34.43;17.20;;;4.60;89.50;;;;;;6274163;22;19988;-87
2021/01/01 13:43:57;;;;;;;34.43;16.77;;;4.60;89.40;;;;;;6260375;22;20008;-86
2021/01/01 13:46:33;;;;;;;34.63;17.13;;;4.70;89.60;;;;;;6301432;22;20046;-86
2021/01/01 13:48:59;;;;;;;30.40;15.33;;;4.60;89.10;;;;;;6274492;22;20480;-86
2021/01/01 13:51:29;;;;;;;30.07;16.20;;;4.60;89.70;;;;;;6269851;22;20019;-86
2021/01/01 13:53:55;;;;;;;34.13;18.43;;;4.60;89.80;;;;;;6277706;22;19990;-85